Time;durP1;ratioP1;P1;durP2;ratioP2;P2;SDS_P1;SDS_P2;PMS_P1;PMS_P2;Temp;Humidity;BMP_temperature;BMP_pressure;BME280_temperature;BME280_humidity;BME280_pressure;Samples;Min_cycle;Max_cycle;Signal;HPM_P1;HPM_P2
2023/03/10 00:01:21;;;;;;;5.30;1.97;;;14.70;91.80;;;;;;6203451;23;20167;-75
2023/03/10 00:03:49;;;;;;;5.43;2.50;;;14.70;91.60;;;;;;6201210;23;20265;-75
2023/03/10 00:06:20;;;;;;;4.03;2.60;;;14.70;91.60;;;;;;6200261;23;20229;-75
2023/03/10 00:08:49;;;;;;;3.60;2.50;;;14.80;91.60;;;;;;6198719;23;20217;-75
2023/03/10 00:11:18;;;;;;;6.90;2.70;;;14.70;91.60;;;;;;6198589;23;20252;-75
2023/03/10 00:13:48;;;;;;;5.37;2.70;;;14.70;91.50;;;;;;6199435;23;20179;-74
2023/03/10 00:16:19;;;;;;;5.37;2.77;;;14.70;91.60;;;;;;6200290;23;20491;-76
2023/03/10 00:18:48;;;;;;;6.07;2.73;;;14.70;91.50;;;;;;6199074;23;20167;-75
2023/03/10 00:21:18;;;;;;;6.23;2.50;;;14.70;91.30;;;;;;6202385;23;20175;-75
2023/03/10 00:23:47;;;;;;;5.70;2.60;;;14.70;91.20;;;;;;6196422;23;20222;-76
2023/03/10 00:26:17;;;;;;;5.13;2.77;;;14.70;91.20;;;;;;6200067;23;20171;-75
2023/03/10 00:28:45;;;;;;;5.10;2.47;;;14.70;91.10;;;;;;6202103;23;20195;-75
2023/03/10 00:31:17;;;;;;;4.90;2.70;;;14.70;91.00;;;;;;6198778;23;20171;-75
2023/03/10 00:33:46;;;;;;;7.70;3.13;;;14.60;90.90;;;;;;6201177;23;20159;-75
2023/03/10 00:36:16;;;;;;;4.33;2.47;;;14.60;91.00;;;;;;6197522;23;20732;-75
2023/03/10 00:38:45;;;;;;;8.53;3.23;;;14.60;91.00;;;;;;6197130;23;20604;-76
2023/03/10 00:41:16;;;;;;;4.93;2.90;;;14.60;90.80;;;;;;6202029;23;20505;-75
2023/03/10 00:43:45;;;;;;;6.07;3.07;;;14.60;90.90;;;;;;6198089;23;20167;-75
2023/03/10 00:46:14;;;;;;;4.73;2.30;;;14.50;91.10;;;;;;6203094;23;20175;-75
2023/03/10 00:48:43;;;;;;;5.67;2.70;;;14.50;91.10;;;;;;6199183;23;20199;-75
2023/03/10 00:51:12;;;;;;;4.63;2.70;;;14.50;91.00;;;;;;6195702;23;20175;-76
2023/03/10 00:53:42;;;;;;;7.13;3.17;;;14.40;90.90;;;;;;6198038;23;20163;-76
2023/03/10 00:56:13;;;;;;;4.87;2.60;;;14.40;91.20;;;;;;6194782;23;20175;-76
2023/03/10 00:58:42;;;;;;;6.23;2.57;;;14.40;91.20;;;;;;6194502;23;20620;-75
2023/03/10 01:01:14;;;;;;;5.63;2.80;;;14.30;91.10;;;;;;6198253;23;20171;-75
2023/03/10 01:03:45;;;;;;;5.67;3.30;;;14.30;91.20;;;;;;6199459;23;20217;-76
2023/03/10 01:06:13;;;;;;;6.60;3.00;;;14.30;91.10;;;;;;6197391;23;20170;-75
2023/03/10 01:08:42;;;;;;;5.13;2.87;;;14.20;91.20;;;;;;6198718;23;20229;-74
2023/03/10 01:11:13;;;;;;;6.37;3.03;;;14.20;91.20;;;;;;6201104;23;20203;-76
2023/03/10 01:13:42;;;;;;;4.40;2.87;;;14.20;91.50;;;;;;6196656;23;20163;-75
2023/03/10 01:16:10;;;;;;;6.33;3.20;;;14.20;91.50;;;;;;6197489;23;20171;-75
2023/03/10 01:18:39;;;;;;;4.70;2.67;;;14.10;91.20;;;;;;6199212;23;20478;-75
2023/03/10 01:21:16;;;;;;;5.37;3.00;;;14.10;91.10;;;;;;6196149;23;20707;-75
2023/03/10 01:23:44;;;;;;;5.27;2.77;;;14.10;91.10;;;;;;6198731;23;20163;-75
2023/03/10 01:26:13;;;;;;;4.80;2.63;;;14.10;91.10;;;;;;6199397;23;20699;-76
2023/03/10 01:28:44;;;;;;;5.43;3.37;;;14.00;91.50;;;;;;6198212;23;20163;-76
2023/03/10 01:31:13;;;;;;;5.00;3.00;;;14.00;91.60;;;;;;6199708;23;20171;-76
2023/03/10 01:33:42;;;;;;;8.20;3.40;;;13.90;91.50;;;;;;6196559;23;20171;-75
2023/03/10 01:36:14;;;;;;;5.70;3.30;;;13.90;91.70;;;;;;6196846;23;20229;-75
2023/03/10 01:38:43;;;;;;;5.30;3.43;;;13.90;91.80;;;;;;6196906;23;20412;-74
2023/03/10 01:41:13;;;;;;;9.63;3.53;;;13.80;92.00;;;;;;6198709;23;20182;-75
2023/03/10 01:43:42;;;;;;;5.27;2.67;;;13.70;92.10;;;;;;6199210;23;20198;-78
2023/03/10 01:46:48;;;;;;;7.83;3.43;;;13.70;92.00;;;;;;6198425;23;20677;-75
2023/03/10 01:49:28;;;;;;;7.53;3.72;;;13.60;91.90;;;;;;6194182;23;20546;-74
2023/03/10 01:52:03;;;;;;;6.60;3.50;;;13.70;92.20;;;;;;6194682;23;20678;-75
2023/03/10 01:54:37;;;;;;;5.40;3.07;;;13.60;92.10;;;;;;6196129;23;20216;-74
2023/03/10 01:57:06;;;;;;;6.77;3.27;;;13.60;92.10;;;;;;6194784;23;20217;-74
2023/03/10 01:59:35;;;;;;;6.93;3.50;;;13.50;92.10;;;;;;6194326;23;20636;-75
2023/03/10 02:02:04;;;;;;;5.63;3.00;;;13.50;92.20;;;;;;6201392;23;20175;-74
2023/03/10 02:04:36;;;;;;;6.57;3.47;;;13.40;92.30;;;;;;6196496;23;20940;-74
2023/03/10 02:07:14;;;;;;;5.67;3.30;;;13.40;92.50;;;;;;6195828;23;20190;-74
2023/03/10 02:09:44;;;;;;;6.60;3.47;;;13.40;92.60;;;;;;6195991;23;20257;-75
2023/03/10 02:12:14;;;;;;;5.80;3.70;;;13.30;92.80;;;;;;6194034;23;20240;-75
2023/03/10 02:14:44;;;;;;;5.50;3.43;;;13.20;92.80;;;;;;6200116;23;20722;-74
2023/03/10 02:17:16;;;;;;;7.37;3.77;;;13.10;93.00;;;;;;6198293;23;20164;-77
2023/03/10 02:20:03;;;;;;;6.30;3.80;;;13.10;93.00;;;;;;6197459;23;20608;-75
2023/03/10 02:22:33;;;;;;;8.17;4.53;;;13.10;92.80;;;;;;6200368;23;20560;-75
2023/03/10 02:25:10;;;;;;;7.13;3.93;;;13.10;92.90;;;;;;6196076;23;20164;-74
2023/03/10 02:27:41;;;;;;;6.87;3.80;;;13.00;93.00;;;;;;6196645;23;20181;-73
2023/03/10 02:30:13;;;;;;;7.47;4.23;;;13.00;93.20;;;;;;6195690;23;20191;-74
2023/03/10 02:32:45;;;;;;;6.47;4.13;;;12.90;93.50;;;;;;6198562;23;21170;-76
2023/03/10 02:35:14;;;;;;;7.83;4.20;;;12.80;93.50;;;;;;6196777;23;20171;-76
2023/03/10 02:37:43;;;;;;;6.60;4.30;;;12.80;93.60;;;;;;6200344;23;20171;-75
2023/03/10 02:40:32;;;;;;;7.10;4.00;;;12.70;93.90;;;;;;6198251;23;20238;-74
2023/03/10 02:43:05;;;;;;;6.60;3.90;;;12.70;94.00;;;;;;6200310;23;20183;-72
2023/03/10 02:45:37;;;;;;;8.20;4.13;;;12.60;94.30;;;;;;6197348;23;20167;-73
2023/03/10 02:48:08;;;;;;;7.17;3.80;;;12.50;94.40;;;;;;6196826;23;20230;-75
2023/03/10 02:50:38;;;;;;;10.50;4.40;;;12.50;94.30;;;;;;6201315;23;20194;-73
2023/03/10 02:53:11;;;;;;;9.53;4.50;;;12.40;94.40;;;;;;6197878;23;20226;-75
2023/03/10 02:55:40;;;;;;;9.53;4.70;;;12.40;94.40;;;;;;6198913;23;20159;-74
2023/03/10 02:58:10;;;;;;;8.10;4.07;;;12.30;94.40;;;;;;6199856;23;20702;-75
2023/03/10 03:00:40;;;;;;;6.83;4.53;;;12.30;94.30;;;;;;6201182;23;20221;-74
2023/03/10 03:03:10;;;;;;;8.97;4.63;;;12.30;94.40;;;;;;6200043;23;20527;-75
2023/03/10 03:05:39;;;;;;;7.60;5.23;;;12.20;94.70;;;;;;6197642;23;20179;-74
2023/03/10 03:08:08;;;;;;;11.43;6.20;;;12.30;94.70;;;;;;6199260;23;20260;-76
2023/03/10 03:10:37;;;;;;;18.37;8.27;;;12.20;94.80;;;;;;6196860;23;20206;-74
2023/03/10 03:13:06;;;;;;;21.77;10.47;;;12.20;95.10;;;;;;6198461;23;20230;-73
2023/03/10 03:15:37;;;;;;;25.63;11.43;;;12.10;95.70;;;;;;6196833;23;20233;-75
2023/03/10 03:18:05;;;;;;;23.70;11.70;;;12.10;96.00;;;;;;6200040;23;20257;-75
2023/03/10 03:20:36;;;;;;;25.70;12.17;;;12.00;96.50;;;;;;6197903;23;20179;-75
2023/03/10 03:23:04;;;;;;;27.90;12.03;;;11.90;96.80;;;;;;6200217;23;20257;-73
2023/03/10 03:25:35;;;;;;;31.50;13.23;;;11.90;97.10;;;;;;6198787;23;20236;-75
2023/03/10 03:28:04;;;;;;;27.70;12.37;;;11.90;97.50;;;;;;6198534;23;20167;-76
2023/03/10 03:30:36;;;;;;;32.73;13.37;;;11.90;97.90;;;;;;6198079;23;20545;-76
2023/03/10 03:33:06;;;;;;;28.53;12.10;;;11.80;98.10;;;;;;6199975;23;20225;-75
2023/03/10 03:35:37;;;;;;;30.97;13.37;;;11.90;97.90;;;;;;6199126;23;20175;-75
2023/03/10 03:38:06;;;;;;;28.43;11.87;;;11.90;97.90;;;;;;6200064;23;20234;-76
2023/03/10 03:40:36;;;;;;;27.60;12.60;;;11.90;98.00;;;;;;6199007;23;20175;-75
2023/03/10 03:43:05;;;;;;;26.63;11.70;;;11.90;97.70;;;;;;6200776;23;20209;-74
2023/03/10 03:45:33;;;;;;;26.30;12.53;;;12.00;97.70;;;;;;6199740;23;20186;-76
2023/03/10 03:48:03;;;;;;;32.67;12.50;;;12.00;97.80;;;;;;6201616;23;20178;-74
2023/03/10 03:50:32;;;;;;;32.63;12.50;;;12.00;97.90;;;;;;6199894;23;20191;-77
2023/03/10 03:53:00;;;;;;;27.20;10.80;;;11.90;98.00;;;;;;6197080;23;20895;-76
2023/03/10 03:55:29;;;;;;;27.27;11.67;;;11.90;98.00;;;;;;6197228;23;20902;-73
2023/03/10 03:57:57;;;;;;;29.20;12.07;;;11.90;98.10;;;;;;6195364;23;20178;-74
2023/03/10 04:00:26;;;;;;;30.63;14.77;;;11.90;97.90;;;;;;6195771;23;20214;-75
2023/03/10 04:02:55;;;;;;;30.77;12.63;;;12.00;97.80;;;;;;6199398;23;20203;-74
2023/03/10 04:05:24;;;;;;;28.90;13.13;;;11.90;97.80;;;;;;6196970;23;20639;-74
2023/03/10 04:07:53;;;;;;;33.90;13.93;;;11.90;97.70;;;;;;6197513;23;20175;-75
2023/03/10 04:10:23;;;;;;;36.40;14.30;;;11.90;97.80;;;;;;6199770;23;20225;-74
2023/03/10 04:12:51;;;;;;;29.33;12.67;;;12.00;97.50;;;;;;6198328;23;20233;-75
2023/03/10 04:15:19;;;;;;;32.83;13.53;;;12.00;97.40;;;;;;6196883;23;20663;-77
2023/03/10 04:17:48;;;;;;;33.93;15.57;;;12.00;97.30;;;;;;6199791;23;20175;-74
2023/03/10 04:20:17;;;;;;;35.27;13.93;;;12.00;97.20;;;;;;6201123;23;20241;-73
2023/03/10 04:22:46;;;;;;;33.60;14.10;;;12.00;97.20;;;;;;6201276;23;20233;-74
2023/03/10 04:25:15;;;;;;;38.80;15.90;;;11.90;97.30;;;;;;6198079;23;21043;-74
2023/03/10 04:27:43;;;;;;;30.23;14.03;;;11.90;97.20;;;;;;6199340;23;20233;-75
2023/03/10 04:30:13;;;;;;;33.07;14.23;;;11.90;97.10;;;;;;6199469;23;20175;-77
2023/03/10 04:32:42;;;;;;;38.57;14.23;;;11.90;97.10;;;;;;6197983;23;20170;-78
2023/03/10 04:35:13;;;;;;;36.87;13.37;;;11.90;97.10;;;;;;6197700;23;20562;-76
2023/03/10 04:37:43;;;;;;;32.10;13.70;;;11.90;96.90;;;;;;6198006;23;20238;-76
2023/03/10 04:40:15;;;;;;;30.07;13.13;;;11.90;96.80;;;;;;6198245;23;20163;-74
2023/03/10 04:42:43;;;;;;;28.53;13.30;;;11.90;96.80;;;;;;6198230;23;20186;-74
2023/03/10 04:45:12;;;;;;;25.47;12.70;;;11.80;96.80;;;;;;6199399;23;20179;-74
2023/03/10 04:47:41;;;;;;;31.00;12.00;;;11.80;96.80;;;;;;6198367;23;20175;-73
2023/03/10 04:50:16;;;;;;;35.97;11.83;;;11.80;97.00;;;;;;6200505;23;20179;-75
2023/03/10 04:52:44;;;;;;;33.00;12.33;;;11.80;97.30;;;;;;6200455;23;20169;-74
2023/03/10 04:55:14;;;;;;;26.13;10.87;;;11.70;97.30;;;;;;6199504;23;20175;-74
2023/03/10 04:57:43;;;;;;;26.63;11.83;;;11.70;97.40;;;;;;6197958;23;20175;-75
2023/03/10 05:00:13;;;;;;;30.00;12.87;;;11.70;97.40;;;;;;6200316;23;20511;-74
2023/03/10 05:02:41;;;;;;;37.40;13.30;;;11.70;97.40;;;;;;6200698;23;20253;-76
2023/03/10 05:05:10;;;;;;;38.23;11.93;;;11.70;97.80;;;;;;6200124;23;20587;-74
2023/03/10 05:07:39;;;;;;;43.27;12.20;;;11.70;97.60;;;;;;6198355;23;20628;-74
2023/03/10 05:10:08;;;;;;;41.03;11.90;;;11.70;97.60;;;;;;6197791;23;20738;-74
2023/03/10 05:12:41;;;;;;;27.83;11.97;;;11.70;97.40;;;;;;6197117;23;20566;-74
2023/03/10 05:15:10;;;;;;;27.60;11.97;;;11.80;97.40;;;;;;6198323;23;20462;-74
2023/03/10 05:17:38;;;;;;;26.80;11.37;;;11.70;97.50;;;;;;6198062;23;20178;-76
2023/03/10 05:20:08;;;;;;;23.03;12.00;;;11.70;97.50;;;;;;6199843;23;20189;-74
2023/03/10 05:22:40;;;;;;;20.03;10.13;;;11.80;97.50;;;;;;6195840;23;20210;-75
2023/03/10 05:25:10;;;;;;;22.27;9.93;;;11.80;97.40;;;;;;6197621;23;20485;-74
2023/03/10 05:27:39;;;;;;;33.70;11.80;;;11.70;97.50;;;;;;6197819;23;20248;-75
2023/03/10 05:30:11;;;;;;;26.27;10.53;;;11.70;97.50;;;;;;6197300;23;20205;-78
2023/03/10 05:32:39;;;;;;;24.47;10.90;;;11.70;97.40;;;;;;6197727;23;20167;-75
2023/03/10 05:35:08;;;;;;;28.57;12.23;;;11.80;97.40;;;;;;6198053;23;20181;-74
2023/03/10 05:37:40;;;;;;;29.50;10.97;;;11.80;97.30;;;;;;6196697;23;20210;-75
2023/03/10 05:40:12;;;;;;;29.60;11.93;;;11.80;97.40;;;;;;6198086;23;20730;-75
2023/03/10 05:42:42;;;;;;;27.73;12.30;;;11.80;97.40;;;;;;6197258;23;20195;-74
2023/03/10 05:45:11;;;;;;;30.13;12.07;;;11.90;97.50;;;;;;6197746;23;20179;-75
2023/03/10 05:47:39;;;;;;;29.07;12.77;;;11.90;97.50;;;;;;6196021;23;20502;-72
2023/03/10 05:50:09;;;;;;;25.10;11.97;;;11.90;97.70;;;;;;6198243;23;20632;-73
2023/03/10 05:52:38;;;;;;;26.37;11.67;;;11.90;97.70;;;;;;6198095;23;20174;-75
2023/03/10 05:55:08;;;;;;;29.30;11.83;;;11.90;97.60;;;;;;6198934;23;20698;-75
2023/03/10 05:57:36;;;;;;;25.83;11.60;;;11.90;97.60;;;;;;6198893;23;20210;-74
2023/03/10 06:00:09;;;;;;;24.03;11.37;;;11.90;97.50;;;;;;6198391;23;20248;-74
2023/03/10 06:02:37;;;;;;;23.47;10.57;;;11.90;97.60;;;;;;6199634;23;20187;-74
2023/03/10 06:05:08;;;;;;;27.70;12.97;;;12.00;97.50;;;;;;6194458;23;20179;-74
2023/03/10 06:07:44;;;;;;;24.43;11.23;;;12.00;97.30;;;;;;6195910;23;20187;-74
2023/03/10 06:10:12;;;;;;;24.83;11.50;;;12.00;97.10;;;;;;6196629;23;20207;-75
2023/03/10 06:12:41;;;;;;;27.77;11.43;;;12.00;97.10;;;;;;6197005;23;20521;-74
2023/03/10 06:15:12;;;;;;;21.00;10.63;;;12.10;97.20;;;;;;6198133;23;20175;-73
2023/03/10 06:17:40;;;;;;;16.93;9.47;;;12.00;96.90;;;;;;6196860;23;20163;-74
2023/03/10 06:20:10;;;;;;;19.00;9.70;;;12.10;96.80;;;;;;6197986;23;20639;-74
2023/03/10 06:22:38;;;;;;;20.47;9.83;;;12.10;96.70;;;;;;6195664;23;20397;-74
2023/03/10 06:25:09;;;;;;;20.23;9.67;;;12.10;97.00;;;;;;6197876;23;20175;-75
2023/03/10 06:27:40;;;;;;;22.40;12.70;;;12.20;96.70;;;;;;6193810;23;20166;-75
2023/03/10 06:30:11;;;;;;;21.87;10.70;;;12.20;96.60;;;;;;6199005;23;20475;-76
2023/03/10 06:32:40;;;;;;;24.10;11.03;;;12.20;96.70;;;;;;6196148;23;20171;-74
2023/03/10 06:35:10;;;;;;;21.83;10.13;;;12.20;96.60;;;;;;6196903;23;20171;-78
2023/03/10 06:37:39;;;;;;;24.53;10.23;;;12.30;96.60;;;;;;6196794;23;20896;-76
2023/03/10 06:40:11;;;;;;;23.53;12.03;;;12.30;96.60;;;;;;6197379;23;20296;-73
2023/03/10 06:42:40;;;;;;;23.37;11.47;;;12.40;96.40;;;;;;6195270;23;20571;-75
2023/03/10 06:45:13;;;;;;;23.10;11.87;;;12.40;96.30;;;;;;6197211;23;20697;-75
2023/03/10 06:47:42;;;;;;;20.80;11.00;;;12.50;96.30;;;;;;6198328;23;20278;-75
2023/03/10 06:50:13;;;;;;;24.07;10.43;;;12.60;96.20;;;;;;6197026;23;20179;-75
2023/03/10 06:52:42;;;;;;;17.10;9.67;;;12.70;96.20;;;;;;6196037;23;20718;-75
2023/03/10 06:55:12;;;;;;;22.23;11.57;;;12.80;96.20;;;;;;6197541;23;20232;-75
2023/03/10 06:57:41;;;;;;;21.17;10.10;;;12.90;95.90;;;;;;6196779;23;20167;-76
2023/03/10 07:00:14;;;;;;;20.23;10.30;;;13.00;95.80;;;;;;6199876;23;20481;-75
2023/03/10 07:02:43;;;;;;;24.77;10.53;;;13.10;95.70;;;;;;6201509;23;20191;-78
2023/03/10 07:05:12;;;;;;;18.10;9.87;;;13.20;95.40;;;;;;6197437;23;20503;-75
2023/03/10 07:07:41;;;;;;;19.00;9.73;;;13.30;95.00;;;;;;6199974;23;20179;-74
2023/03/10 07:10:11;;;;;;;21.17;10.20;;;13.40;95.00;;;;;;6197922;23;20223;-77
2023/03/10 07:12:39;;;;;;;18.33;9.37;;;13.50;95.00;;;;;;6197321;23;20179;-76
2023/03/10 07:15:15;;;;;;;17.47;8.63;;;13.60;94.90;;;;;;6199948;23;20183;-77
2023/03/10 07:17:51;;;;;;;18.03;8.63;;;13.70;94.70;;;;;;6170809;23;20233;-78
2023/03/10 07:20:21;;;;;;;18.10;8.67;;;13.80;94.10;;;;;;6198217;23;20505;-76
2023/03/10 07:22:49;;;;;;;17.00;8.77;;;13.90;94.10;;;;;;6189996;23;20203;-77
2023/03/10 07:25:18;;;;;;;17.90;8.17;;;14.10;93.90;;;;;;6193591;23;20744;-78
2023/03/10 07:27:46;;;;;;;18.13;9.37;;;14.20;93.80;;;;;;6195772;23;20179;-77
2023/03/10 07:30:16;;;;;;;17.57;9.87;;;14.30;93.50;;;;;;6197099;23;20754;-76
2023/03/10 07:32:45;;;;;;;20.60;10.37;;;14.40;93.30;;;;;;6196378;23;20218;-76
2023/03/10 07:35:13;;;;;;;18.70;8.50;;;14.50;93.00;;;;;;6196484;23;20254;-77
2023/03/10 07:37:42;;;;;;;16.43;7.70;;;14.60;92.20;;;;;;6194223;23;20638;-77
2023/03/10 07:40:11;;;;;;;17.43;8.90;;;14.80;92.40;;;;;;6198253;23;20175;-76
2023/03/10 07:42:40;;;;;;;16.23;8.93;;;14.90;91.70;;;;;;6196988;23;20209;-76
2023/03/10 07:45:08;;;;;;;16.47;8.47;;;15.00;91.60;;;;;;6197058;23;20280;-76
2023/03/10 07:47:38;;;;;;;16.43;8.47;;;15.10;91.30;;;;;;6195459;23;20175;-76
2023/03/10 07:50:08;;;;;;;16.30;8.40;;;15.20;91.20;;;;;;6198287;23;20631;-77
2023/03/10 07:52:36;;;;;;;22.43;8.53;;;15.20;90.60;;;;;;6196714;23;20213;-76
2023/03/10 07:55:06;;;;;;;16.73;9.00;;;15.40;90.70;;;;;;6197062;23;20179;-76
2023/03/10 07:57:34;;;;;;;18.43;9.47;;;15.50;90.70;;;;;;6196789;23;20480;-77
2023/03/10 08:00:03;;;;;;;15.80;8.87;;;15.60;90.70;;;;;;6201299;23;20174;-77
2023/03/10 08:02:31;;;;;;;18.37;8.67;;;15.60;90.40;;;;;;6201872;23;20257;-76
2023/03/10 08:05:01;;;;;;;16.17;9.00;;;15.70;90.30;;;;;;6197585;23;20190;-76
2023/03/10 08:07:30;;;;;;;15.10;8.67;;;15.80;90.30;;;;;;6197898;23;20233;-77
2023/03/10 08:09:59;;;;;;;16.93;8.77;;;15.90;90.30;;;;;;6198881;23;20237;-75
2023/03/10 08:12:27;;;;;;;17.43;8.57;;;15.90;89.80;;;;;;6204911;23;20233;-77
2023/03/10 08:14:56;;;;;;;17.00;8.93;;;16.00;89.70;;;;;;6205879;23;20608;-77
2023/03/10 08:17:29;;;;;;;15.63;8.00;;;16.10;89.70;;;;;;6197559;23;20489;-77
2023/03/10 08:19:58;;;;;;;16.43;8.40;;;16.10;88.50;;;;;;6200393;23;20159;-76
2023/03/10 08:22:28;;;;;;;12.90;7.20;;;16.20;87.70;;;;;;6198494;23;20325;-77
2023/03/10 08:24:58;;;;;;;15.90;7.87;;;16.30;88.80;;;;;;6200968;23;20163;-77
2023/03/10 08:27:26;;;;;;;19.00;7.53;;;16.40;87.80;;;;;;6199418;23;20175;-76
2023/03/10 08:29:56;;;;;;;16.53;8.17;;;16.50;87.10;;;;;;6199726;23;20213;-76
2023/03/10 08:32:24;;;;;;;17.03;8.83;;;16.50;85.60;;;;;;6201651;23;20230;-76
2023/03/10 08:34:53;;;;;;;20.23;8.60;;;16.60;85.60;;;;;;6199551;23;20171;-78
2023/03/10 08:37:21;;;;;;;17.50;8.17;;;16.70;85.60;;;;;;6200074;23;20232;-77
2023/03/10 08:39:53;;;;;;;17.70;9.17;;;16.70;84.90;;;;;;6200254;23;20175;-76
2023/03/10 08:42:21;;;;;;;16.57;9.03;;;16.90;84.90;;;;;;6201050;23;20536;-77
2023/03/10 08:44:49;;;;;;;19.93;9.40;;;16.90;83.10;;;;;;6198593;23;20199;-77
2023/03/10 08:47:18;;;;;;;23.00;9.80;;;17.00;83.30;;;;;;6198027;23;20175;-77
2023/03/10 08:49:47;;;;;;;16.17;8.77;;;17.10;83.70;;;;;;6196904;23;20549;-78
2023/03/10 08:52:19;;;;;;;15.40;7.67;;;17.00;82.70;;;;;;6198001;23;20528;-78
2023/03/10 08:54:47;;;;;;;16.30;7.87;;;17.20;83.10;;;;;;6199641;23;20344;-77
2023/03/10 08:57:17;;;;;;;13.70;7.73;;;17.20;83.00;;;;;;6199135;23;20222;-76
2023/03/10 08:59:45;;;;;;;17.83;7.33;;;17.30;82.40;;;;;;6200180;23;20245;-78
2023/03/10 09:02:14;;;;;;;20.57;9.67;;;17.30;82.20;;;;;;6199035;23;20175;-76
2023/03/10 09:04:43;;;;;;;16.97;9.07;;;17.40;82.00;;;;;;6199131;23;20191;-76
2023/03/10 09:07:18;;;;;;;15.70;8.50;;;17.50;82.20;;;;;;6197874;23;20225;-76
2023/03/10 09:09:46;;;;;;;18.33;8.20;;;17.60;82.30;;;;;;6198945;23;20294;-76
2023/03/10 09:12:16;;;;;;;15.23;7.80;;;17.60;81.60;;;;;;6199635;23;20241;-76
2023/03/10 09:14:44;;;;;;;18.20;8.87;;;17.70;81.60;;;;;;6199571;23;20186;-76
2023/03/10 09:17:13;;;;;;;15.77;8.17;;;17.80;81.30;;;;;;6198511;23;20175;-76
2023/03/10 09:19:41;;;;;;;14.57;7.70;;;17.90;81.30;;;;;;6197495;23;20178;-77
2023/03/10 09:22:09;;;;;;;14.57;7.93;;;18.00;81.30;;;;;;6199897;23;20241;-75
2023/03/10 09:24:38;;;;;;;13.77;6.90;;;18.10;80.80;;;;;;6198535;23;20261;-77
2023/03/10 09:27:06;;;;;;;11.80;6.13;;;18.20;79.10;;;;;;6197432;23;20175;-77
2023/03/10 09:29:36;;;;;;;17.87;7.63;;;18.20;78.60;;;;;;6195876;23;20663;-76
2023/03/10 09:32:10;;;;;;;18.70;8.10;;;18.30;78.10;;;;;;6200014;23;20159;-77
2023/03/10 09:34:39;;;;;;;14.07;7.47;;;18.30;78.10;;;;;;6197322;23;20810;-77
2023/03/10 09:37:08;;;;;;;16.13;7.57;;;18.30;77.50;;;;;;6196171;23;20178;-76
2023/03/10 09:39:36;;;;;;;16.00;7.70;;;18.30;76.90;;;;;;6193382;23;20175;-75
2023/03/10 09:42:32;;;;;;;14.53;7.57;;;18.40;77.10;;;;;;6199012;23;20182;-77
2023/03/10 09:45:19;;;;;;;14.53;7.30;;;18.40;77.60;;;;;;6198141;23;20194;-77
2023/03/10 09:48:03;;;;;;;11.87;6.70;;;18.50;76.80;;;;;;6198079;23;20159;-77
2023/03/10 09:50:38;;;;;;;13.57;6.80;;;18.60;76.70;;;;;;6201287;23;20602;-76
2023/03/10 09:53:19;;;;;;;16.20;8.03;;;18.70;76.30;;;;;;6199919;23;20159;-77
2023/03/10 09:55:47;;;;;;;13.20;7.23;;;18.80;76.30;;;;;;6197810;23;20163;-76
2023/03/10 09:58:28;;;;;;;16.33;8.03;;;18.90;76.10;;;;;;6198460;23;20174;-77
2023/03/10 10:00:59;;;;;;;16.93;8.23;;;19.00;74.50;;;;;;6197608;23;20533;-76
2023/03/10 10:03:34;;;;;;;16.70;8.20;;;19.10;73.90;;;;;;6198264;23;20217;-77
2023/03/10 10:06:22;;;;;;;16.27;7.27;;;19.10;74.10;;;;;;6197987;23;20177;-78
2023/03/10 10:08:59;;;;;;;13.97;7.67;;;19.20;74.40;;;;;;6196995;23;20170;-78
2023/03/10 10:11:36;;;;;;;13.17;6.93;;;19.30;74.10;;;;;;6196718;23;20210;-79
2023/03/10 10:14:17;;;;;;;11.27;7.10;;;19.40;73.00;;;;;;6197734;23;20197;-78
2023/03/10 10:17:08;;;;;;;18.00;6.40;;;19.50;72.50;;;;;;6197039;23;20256;-77
2023/03/10 10:19:39;;;;;;;10.80;5.80;;;19.50;71.70;;;;;;6196732;23;20163;-77
2023/03/10 10:22:15;;;;;;;10.13;5.90;;;19.60;70.20;;;;;;6198687;23;20159;-78
2023/03/10 10:25:01;;;;;;;10.07;5.33;;;19.60;70.40;;;;;;6198417;23;20197;-79
2023/03/10 10:27:31;;;;;;;12.43;5.30;;;19.70;70.50;;;;;;6197598;23;20160;-78
2023/03/10 10:30:27;;;;;;;9.32;4.78;;;19.80;70.40;;;;;;6195700;23;20164;-79
2023/03/10 10:32:59;;;;;;;11.07;5.07;;;19.90;70.80;;;;;;6199010;23;20163;-79
2023/03/10 10:35:30;;;;;;;8.65;5.07;;;20.00;70.80;;;;;;6200898;23;20163;-80
2023/03/10 10:38:00;;;;;;;10.10;5.28;;;20.00;70.30;;;;;;6198065;23;20163;-79
2023/03/10 10:40:47;;;;;;;6.80;4.00;;;20.10;69.60;;;;;;6197821;23;20167;-80
2023/03/10 10:43:18;;;;;;;8.15;4.10;;;20.20;69.00;;;;;;6196019;23;20163;-78
2023/03/10 10:45:53;;;;;;;8.15;4.60;;;20.20;68.30;;;;;;6196951;23;21013;-80
2023/03/10 10:48:38;;;;;;;9.82;4.68;;;20.20;66.40;;;;;;6199081;23;20161;-79
2023/03/10 10:51:23;;;;;;;8.52;4.30;;;20.20;66.00;;;;;;6200395;23;20171;-81
2023/03/10 10:53:51;;;;;;;11.10;4.38;;;20.20;66.20;;;;;;6196397;23;20485;-78
2023/03/10 10:56:22;;;;;;;7.70;4.38;;;20.20;66.70;;;;;;6199269;23;20177;-78
2023/03/10 10:59:03;;;;;;;9.93;3.50;;;20.30;66.00;;;;;;6196880;23;20167;-79
2023/03/10 11:01:49;;;;;;;5.55;3.03;;;20.40;65.60;;;;;;6202364;23;20186;-79
2023/03/10 11:04:20;;;;;;;7.75;2.90;;;20.40;63.70;;;;;;6199908;23;20191;-79
2023/03/10 11:06:50;;;;;;;4.75;2.58;;;20.50;63.80;;;;;;6199530;23;20270;-78
2023/03/10 11:09:21;;;;;;;4.05;2.42;;;20.50;63.30;;;;;;6198407;23;20575;-79
2023/03/10 11:12:00;;;;;;;6.55;2.30;;;20.50;63.10;;;;;;6198239;23;20736;-78
2023/03/10 11:14:40;;;;;;;5.03;2.45;;;20.60;63.50;;;;;;6199199;23;20163;-79
2023/03/10 11:17:15;;;;;;;12.90;3.55;;;20.60;62.90;;;;;;6198962;23;20690;-79
2023/03/10 11:20:05;;;;;;;11.05;2.97;;;20.70;61.60;;;;;;6199860;23;20308;-78
2023/03/10 11:22:39;;;;;;;6.25;3.13;;;20.70;62.20;;;;;;6200207;23;20221;-79
2023/03/10 11:25:25;;;;;;;8.15;2.55;;;20.80;62.50;;;;;;6200804;23;20186;-78
2023/03/10 11:28:10;;;;;;;7.35;2.60;;;20.90;61.00;;;;;;6199876;23;20233;-79
2023/03/10 11:30:47;;;;;;;7.13;2.97;;;20.90;58.90;;;;;;6199282;23;20185;-76
2023/03/10 11:33:23;;;;;;;6.07;3.13;;;20.90;59.00;;;;;;6199866;23;20168;-76
2023/03/10 11:35:56;;;;;;;5.93;3.15;;;20.90;58.80;;;;;;6202638;23;20221;-77
2023/03/10 11:38:37;;;;;;;8.27;2.67;;;21.00;59.40;;;;;;6200855;23;20163;-77
2023/03/10 11:41:10;;;;;;;8.20;2.10;;;21.10;59.90;;;;;;6199179;23;20222;-75
2023/03/10 11:43:55;;;;;;;5.32;1.80;;;21.20;59.40;;;;;;6199475;23;20241;-77
2023/03/10 11:46:28;;;;;;;4.32;2.10;;;21.20;58.90;;;;;;6198974;23;20199;-76
2023/03/10 11:49:06;;;;;;;3.60;1.73;;;21.30;57.90;;;;;;6196873;23;20198;-76
2023/03/10 11:51:39;;;;;;;10.23;2.28;;;21.30;57.80;;;;;;6198059;23;20163;-77
2023/03/10 11:54:14;;;;;;;4.68;2.10;;;21.30;58.60;;;;;;6199685;23;20213;-76
2023/03/10 11:56:44;;;;;;;6.82;2.00;;;21.40;58.90;;;;;;6199083;23;20541;-77
2023/03/10 11:59:17;;;;;;;5.80;2.03;;;21.50;58.20;;;;;;6202212;23;20509;-76
2023/03/10 12:01:51;;;;;;;5.55;2.28;;;21.60;58.10;;;;;;6202137;23;20163;-77
2023/03/10 12:04:27;;;;;;;6.30;2.40;;;21.50;57.50;;;;;;6198677;23;20498;-77
2023/03/10 12:07:03;;;;;;;7.35;2.45;;;21.60;57.60;;;;;;6201281;23;20228;-77
2023/03/10 12:09:38;;;;;;;4.07;2.08;;;21.60;57.70;;;;;;6199483;23;20202;-78
2023/03/10 12:12:12;;;;;;;9.75;2.60;;;21.70;58.40;;;;;;6199530;23;20163;-77
2023/03/10 12:14:43;;;;;;;5.45;1.90;;;21.70;58.60;;;;;;6200890;23;20168;-77
2023/03/10 12:17:13;;;;;;;3.53;1.65;;;21.80;58.30;;;;;;6200304;23;20166;-77
2023/03/10 12:20:13;;;;;;;3.85;1.90;;;21.80;56.80;;;;;;6198473;23;20254;-77
2023/03/10 12:22:45;;;;;;;3.20;1.70;;;21.90;56.80;;;;;;6197373;23;20160;-77
2023/03/10 12:25:42;;;;;;;5.07;2.00;;;22.00;57.20;;;;;;6196905;23;20197;-78
2023/03/10 12:28:29;;;;;;;3.90;2.00;;;22.10;57.60;;;;;;6198946;23;20571;-77
2023/03/10 12:30:59;;;;;;;3.63;1.63;;;22.20;57.10;;;;;;6199852;23;20248;-79
2023/03/10 12:33:52;;;;;;;2.22;1.30;;;22.30;54.70;;;;;;6199992;23;20170;-77
2023/03/10 12:36:34;;;;;;;3.03;1.52;;;22.40;55.40;;;;;;6183274;23;20171;-76
2023/03/10 12:43:45;;;;;;;2.60;1.50;;;22.50;56.10;;;;;;5993400;23;20174;-78
2023/03/10 12:46:19;;;;;;;1.55;1.02;;;22.60;55.60;;;;;;6054239;23;20440;-79
2023/03/10 12:48:53;;;;;;;3.22;1.35;;;22.70;54.90;;;;;;6171274;23;20198;-78
2023/03/10 12:51:25;;;;;;;6.10;1.10;;;22.70;54.30;;;;;;6168648;23;20164;-79
2023/03/10 12:53:58;;;;;;;2.63;1.15;;;22.80;54.90;;;;;;6170006;23;20168;-78
2023/03/10 12:56:41;;;;;;;3.20;1.00;;;22.80;55.40;;;;;;6169089;23;20648;-79
2023/03/10 12:59:21;;;;;;;3.25;1.00;;;22.90;55.40;;;;;;6168509;23;20179;-80
2023/03/10 13:01:53;;;;;;;2.20;1.00;;;23.00;54.70;;;;;;6170654;23;20616;-79
2023/03/10 13:09:29;;;;;;;2.08;0.88;;;23.10;53.90;;;;;;6017292;23;20218;-81
2023/03/10 13:12:12;;;;;;;2.67;0.85;;;23.20;53.80;;;;;;6113011;23;20623;-78